createdAt,value
2022-10-05T06:05:47.709Z,8.74
2022-10-05T06:08:59.663Z,8.86
2022-10-05T06:12:14.840Z,8.82
2022-10-05T06:20:27.811Z,8.00
2022-10-05T06:24:09.223Z,7.72
2022-10-05T06:27:35.665Z,7.69
2022-10-05T06:30:55.265Z,7.68
2022-10-05T06:34:17.925Z,7.87
2022-10-05T06:37:43.758Z,8.03
2022-10-05T06:41:12.840Z,7.75
2022-10-05T06:44:48.850Z,7.72
2022-10-05T06:48:40.648Z,8.10
2022-10-05T06:52:09.303Z,8.45
2022-10-05T06:55:34.849Z,8.95
2022-10-05T06:59:00.498Z,8.97
2022-10-05T07:02:29.081Z,10.11
2022-10-05T07:05:45.850Z,11.21
2022-10-05T07:09:19.933Z,11.45
2022-10-05T07:12:57.870Z,12.35
2022-10-05T07:16:32.911Z,12.99
2022-10-05T07:19:41.210Z,11.96
2022-10-05T07:23:17.045Z,12.32
2022-10-05T07:26:34.656Z,12.83
2022-10-05T07:30:02.977Z,12.96
2022-10-05T07:33:34.243Z,12.98
2022-10-05T07:37:06.752Z,12.30
2022-10-05T07:40:26.472Z,13.36
2022-10-05T07:44:20.108Z,13.93
2022-10-05T07:47:38.739Z,13.51
2022-10-05T07:51:05.899Z,13.93
2022-10-05T07:54:28.315Z,13.76
2022-10-05T07:57:50.444Z,13.36
2022-10-05T08:01:21.975Z,13.53
2022-10-05T08:04:42.368Z,13.71
2022-10-05T08:07:59.312Z,13.99
2022-10-05T08:11:14.686Z,13.95
2022-10-05T08:14:33.830Z,13.84
2022-10-05T08:17:46.089Z,14.72
2022-10-05T08:20:57.616Z,14.14
2022-10-05T08:24:11.403Z,14.93
2022-10-05T08:27:46.965Z,15.22
2022-10-05T08:31:19.226Z,15.18
2022-10-05T08:34:40.456Z,16.07
2022-10-05T08:37:44.872Z,16.60
2022-10-05T08:45:26.968Z,15.99
2022-10-05T08:48:46.028Z,16.33
2022-10-05T08:52:12.694Z,16.41
2022-10-05T08:55:28.891Z,16.50
2022-10-05T08:58:49.539Z,16.33
2022-10-05T09:02:19.774Z,17.72
2022-10-05T09:05:52.165Z,17.36
2022-10-05T09:09:20.832Z,17.58
2022-10-05T09:12:33.048Z,17.42
2022-10-05T09:16:01.712Z,16.93
2022-10-05T09:19:34.750Z,16.68
2022-10-05T09:22:58.621Z,17.57
2022-10-05T09:26:47.768Z,17.43
2022-10-05T09:30:16.969Z,17.53
2022-10-05T09:33:49.598Z,17.97
2022-10-05T09:37:26.615Z,17.27
2022-10-05T09:41:08.540Z,16.41
2022-10-05T09:44:20.945Z,16.70
2022-10-05T09:48:00.003Z,16.98
2022-10-05T09:51:50.315Z,17.81
2022-10-05T09:55:31.008Z,17.59
2022-10-05T09:59:08.907Z,17.42
2022-10-05T10:02:32.235Z,17.48
2022-10-05T10:06:03.882Z,18.17
2022-10-05T10:09:21.182Z,17.31
2022-10-05T10:12:30.198Z,17.20
2022-10-05T10:15:38.460Z,17.49
2022-10-05T10:19:01.078Z,17.77
2022-10-05T10:22:17.748Z,17.31
2022-10-05T10:26:01.806Z,17.60
2022-10-05T10:29:32.001Z,17.76
2022-10-05T10:33:02.263Z,18.11
2022-10-05T10:36:17.062Z,18.04
2022-10-05T10:39:38.909Z,18.41
2022-10-05T10:42:41.833Z,18.66
2022-10-05T10:46:24.178Z,18.56
2022-10-05T10:49:57.775Z,18.32
2022-10-05T10:53:28.011Z,18.24
2022-10-05T10:57:10.772Z,17.92
2022-10-05T11:00:55.724Z,17.90
2022-10-05T11:04:13.934Z,17.44
2022-10-05T11:07:45.012Z,17.31
2022-10-05T11:11:03.554Z,17.63
2022-10-05T11:14:44.267Z,18.03
2022-10-05T11:18:10.070Z,18.37
2022-10-05T11:21:30.743Z,18.22
2022-10-05T11:24:39.034Z,17.83
2022-10-05T11:28:18.975Z,17.88
2022-10-05T11:31:40.706Z,18.05
2022-10-05T11:35:04.858Z,18.18
2022-10-05T11:38:18.157Z,18.25
2022-10-05T11:41:33.043Z,18.47
2022-10-05T11:45:01.984Z,18.55
2022-10-05T11:48:29.375Z,18.35
2022-10-05T11:51:41.890Z,18.06
2022-10-05T11:55:16.655Z,18.02
2022-10-05T11:58:38.980Z,18.24
2022-10-05T12:02:01.859Z,18.44
2022-10-05T12:05:29.254Z,18.34
2022-10-05T12:08:45.980Z,18.09
2022-10-05T12:12:10.952Z,18.32
2022-10-05T12:15:31.927Z,18.47
2022-10-05T12:18:39.855Z,18.54
2022-10-05T12:22:04.452Z,18.60
2022-10-05T12:25:27.813Z,18.59
2022-10-05T12:28:53.899Z,18.42
2022-10-05T12:32:13.765Z,18.36
2022-10-05T12:35:49.653Z,18.35
2022-10-05T12:38:56.275Z,18.46
2022-10-05T12:42:22.034Z,18.31
2022-10-05T12:45:54.876Z,18.32
2022-10-05T12:49:34.173Z,18.39
2022-10-05T12:52:50.454Z,18.34
2022-10-05T12:56:04.726Z,18.24
2022-10-05T12:59:30.977Z,18.29
2022-10-05T13:02:45.712Z,18.32
2022-10-05T13:06:08.357Z,18.30
2022-10-05T13:09:29.911Z,18.29
2022-10-05T13:12:59.921Z,18.19
2022-10-05T13:16:17.244Z,18.27
2022-10-05T13:19:34.905Z,18.36
2022-10-05T13:22:48.817Z,18.19
2022-10-05T13:26:13.016Z,18.21
2022-10-05T13:29:40.515Z,18.07
2022-10-05T13:33:00.964Z,17.87
2022-10-05T13:36:43.004Z,17.75
2022-10-05T13:40:16.681Z,17.69
2022-10-05T13:47:36.292Z,17.66
2022-10-05T13:51:31.812Z,17.78
2022-10-05T13:55:27.198Z,17.75
2022-10-05T13:59:03.602Z,17.81
2022-10-05T14:02:34.781Z,17.81
2022-10-05T14:05:59.173Z,17.75
2022-10-05T14:09:33.803Z,17.65
2022-10-05T14:12:43.750Z,17.61
2022-10-05T14:16:12.721Z,17.60
2022-10-05T14:19:34.147Z,17.56
2022-10-05T14:23:24.863Z,17.54
2022-10-05T14:26:35.573Z,17.54
2022-10-05T14:30:03.867Z,17.44
2022-10-05T14:33:18.952Z,17.38
2022-10-05T14:36:44.794Z,17.38
2022-10-05T14:40:03.353Z,17.35
2022-10-05T14:43:17.979Z,17.33
2022-10-05T14:46:29.336Z,17.28
2022-10-05T14:50:11.805Z,17.24
2022-10-05T14:53:25.889Z,17.23
2022-10-05T14:56:56.591Z,17.14
2022-10-05T15:00:19.993Z,17.10
2022-10-05T15:03:42.232Z,17.05
2022-10-05T15:06:58.459Z,16.97
2022-10-05T15:10:33.698Z,16.84
2022-10-05T15:13:49.740Z,16.74
2022-10-05T15:17:04.896Z,16.70
2022-10-05T15:20:27.810Z,16.63
2022-10-05T15:23:51.978Z,16.52
2022-10-05T15:27:34.868Z,16.45
2022-10-05T15:31:07.217Z,16.33
2022-10-05T15:34:38.391Z,16.17
2022-10-05T15:38:05.799Z,16.08
2022-10-05T15:41:25.201Z,15.96
2022-10-05T15:45:33.119Z,15.93
2022-10-05T15:49:23.242Z,15.86
2022-10-05T15:52:44.932Z,15.65
2022-10-05T15:55:52.896Z,15.67
2022-10-05T15:59:18.806Z,15.67
2022-10-05T16:02:30.015Z,15.63
2022-10-05T16:10:43.157Z,15.36
2022-10-05T16:14:31.774Z,15.15
2022-10-05T16:17:54.899Z,14.94
2022-10-05T16:21:33.655Z,14.84
2022-10-05T16:25:58.748Z,14.84
2022-10-05T16:29:55.604Z,14.85
2022-10-05T16:33:18.037Z,14.81
2022-10-05T16:37:07.056Z,14.62
2022-10-05T16:45:44.797Z,14.41
2022-10-05T16:53:30.642Z,14.13
2022-10-05T16:57:07.987Z,14.03
2022-10-05T17:00:26.127Z,13.90
2022-10-05T17:04:13.157Z,13.76
2022-10-05T17:07:53.108Z,13.65
2022-10-05T17:11:41.904Z,13.49
2022-10-05T17:15:32.368Z,13.39
2022-10-05T17:19:01.027Z,13.34
2022-10-05T17:22:40.348Z,13.35
2022-10-05T17:25:57.873Z,13.32
2022-10-05T17:29:30.021Z,13.27
2022-10-05T17:33:13.706Z,13.21
2022-10-05T17:36:22.835Z,13.14
2022-10-05T17:39:59.820Z,13.09
2022-10-05T17:44:21.990Z,13.04
2022-10-05T17:48:19.221Z,12.92
2022-10-05T17:52:16.705Z,12.93
2022-10-05T17:55:53.653Z,12.88
2022-10-05T17:59:18.799Z,12.79
2022-10-05T18:02:58.486Z,12.63
2022-10-05T18:06:25.160Z,12.55
2022-10-05T18:10:30.030Z,12.48
2022-10-05T18:13:56.019Z,12.47
2022-10-05T18:17:45.592Z,12.51
2022-10-05T18:21:15.827Z,12.41
2022-10-05T18:24:55.949Z,12.27
2022-10-05T18:28:18.856Z,11.99
2022-10-05T18:31:34.394Z,12.09
2022-10-05T18:35:03.247Z,12.07
2022-10-05T18:38:53.938Z,11.99
2022-10-05T18:42:29.124Z,12.04
2022-10-05T18:46:13.091Z,12.05
2022-10-05T18:50:25.691Z,12.00
2022-10-05T18:53:58.884Z,11.96
2022-10-05T18:57:32.698Z,11.93
2022-10-05T19:01:12.388Z,11.91
2022-10-05T19:04:53.236Z,11.85
2022-10-05T19:13:16.772Z,11.61
2022-10-05T19:16:31.793Z,11.49
2022-10-05T19:19:44.753Z,11.51
2022-10-05T19:22:48.544Z,11.52
2022-10-05T19:26:15.950Z,11.57
2022-10-05T19:29:47.710Z,11.55
2022-10-05T19:33:24.257Z,11.53
2022-10-05T19:36:56.726Z,11.41
2022-10-05T19:40:27.599Z,11.41
2022-10-05T19:44:06.968Z,11.35
2022-10-05T19:47:37.543Z,11.34
2022-10-05T19:50:59.999Z,11.33
2022-10-05T19:54:21.894Z,11.23
2022-10-05T19:57:35.115Z,11.15
2022-10-05T20:00:47.226Z,11.14
2022-10-05T20:03:58.132Z,11.12
2022-10-05T20:07:02.523Z,11.16
2022-10-05T20:10:30.832Z,11.11
2022-10-05T20:13:36.777Z,11.09
2022-10-05T20:18:09.061Z,11.04
2022-10-05T20:22:00.107Z,10.96
2022-10-05T20:25:14.251Z,10.93
2022-10-05T20:28:33.725Z,10.91
2022-10-05T20:31:37.266Z,10.94
2022-10-05T20:34:42.929Z,10.86
2022-10-05T20:38:11.660Z,10.87
2022-10-05T20:41:16.634Z,10.79
2022-10-05T20:44:21.033Z,10.76
2022-10-05T20:47:28.196Z,10.79
2022-10-05T20:51:08.791Z,10.78
2022-10-05T20:54:11.936Z,10.75
2022-10-05T20:57:27.912Z,10.52
2022-10-05T21:00:54.922Z,10.48
2022-10-05T21:03:59.685Z,10.36
2022-10-05T21:07:07.144Z,10.35
2022-10-05T21:10:11.741Z,10.41
2022-10-05T21:13:18.579Z,10.38
2022-10-05T21:16:25.040Z,10.38
2022-10-05T21:19:29.538Z,10.36
2022-10-05T21:22:32.888Z,10.33
2022-10-05T21:25:37.155Z,10.32
2022-10-05T21:28:41.813Z,10.27
2022-10-05T21:31:45.935Z,10.22
2022-10-05T21:34:53.191Z,10.17
2022-10-05T21:37:58.018Z,10.15
2022-10-05T21:41:05.236Z,10.12
2022-10-05T21:44:32.128Z,10.09
2022-10-05T21:47:35.225Z,10.04
2022-10-05T21:50:39.924Z,10.04
2022-10-05T21:53:49.815Z,10.02
2022-10-05T21:56:55.804Z,10.04
2022-10-05T22:00:06.653Z,9.96
2022-10-05T22:03:10.237Z,9.94
2022-10-05T22:06:13.627Z,9.91
2022-10-05T22:09:18.898Z,9.78
2022-10-05T22:12:24.474Z,9.79
2022-10-05T22:15:31.380Z,9.79
2022-10-05T22:18:35.343Z,9.70
2022-10-05T22:21:41.911Z,9.70
2022-10-05T22:24:44.881Z,9.68
2022-10-05T22:27:49.937Z,9.51
2022-10-05T22:30:53.352Z,9.56
2022-10-05T22:33:56.470Z,9.48
2022-10-05T22:37:03.213Z,9.44
2022-10-05T22:40:13.173Z,9.36
2022-10-05T22:43:20.047Z,9.22
2022-10-05T22:46:23.502Z,9.24
2022-10-05T22:49:26.881Z,9.31
2022-10-05T22:52:29.632Z,9.17
2022-10-05T22:55:34.176Z,9.18
2022-10-05T22:58:37.732Z,9.12
2022-10-05T23:01:40.845Z,9.14
2022-10-05T23:04:43.476Z,9.17
2022-10-05T23:07:47.216Z,9.19
2022-10-05T23:10:52.623Z,9.24
2022-10-05T23:13:57.021Z,9.23
2022-10-05T23:17:00.054Z,9.20
2022-10-05T23:20:05.837Z,9.26
2022-10-05T23:23:08.703Z,9.27
2022-10-05T23:26:12.368Z,9.24
2022-10-05T23:29:15.575Z,9.27
2022-10-05T23:32:18.859Z,9.26
2022-10-05T23:35:22.065Z,9.15
2022-10-05T23:38:26.801Z,9.16
2022-10-05T23:41:34.641Z,9.16
